sensor_id;sensor_type;location;lat;lon;timestamp;temperature;humidity
21092;DHT22;10704;42.678;23.288;2022-10-01T00:01:12;14.60;99.90
21092;DHT22;10704;42.678;23.288;2022-10-01T00:03:38;14.50;99.90
21092;DHT22;10704;42.678;23.288;2022-10-01T00:06:07;14.50;99.90
21092;DHT22;10704;42.678;23.288;2022-10-01T00:08:37;14.60;99.90
21092;DHT22;10704;42.678;23.288;2022-10-01T00:11:13;14.50;99.90
21092;DHT22;10704;42.678;23.288;2022-10-01T00:13:41;14.40;99.90
21092;DHT22;10704;42.678;23.288;2022-10-01T00:16:15;14.40;99.90
21092;DHT22;10704;42.678;23.288;2022-10-01T00:18:43;14.40;99.90
21092;DHT22;10704;42.678;23.288;2022-10-01T00:21:22;14.40;99.90
21092;DHT22;10704;42.678;23.288;2022-10-01T00:23:59;14.40;99.90
21092;DHT22;10704;42.678;23.288;2022-10-01T00:26:29;14.30;99.90
21092;DHT22;10704;42.678;23.288;2022-10-01T00:28:57;14.20;99.90
21092;DHT22;10704;42.678;23.288;2022-10-01T00:31:24;14.20;99.90
21092;DHT22;10704;42.678;23.288;2022-10-01T00:33:54;14.10;99.90
21092;DHT22;10704;42.678;23.288;2022-10-01T00:36:20;14.00;99.90
21092;DHT22;10704;42.678;23.288;2022-10-01T00:38:46;14.00;99.90
21092;DHT22;10704;42.678;23.288;2022-10-01T00:41:13;14.00;99.90
21092;DHT22;10704;42.678;23.288;2022-10-01T00:43:50;14.00;99.90
21092;DHT22;10704;42.678;23.288;2022-10-01T00:46:40;13.90;99.90
21092;DHT22;10704;42.678;23.288;2022-10-01T00:49:13;13.90;99.90
21092;DHT22;10704;42.678;23.288;2022-10-01T00:51:46;13.80;99.90
21092;DHT22;10704;42.678;23.288;2022-10-01T00:54:20;13.90;99.90
21092;DHT22;10704;42.678;23.288;2022-10-01T00:56:50;13.90;99.90
21092;DHT22;10704;42.678;23.288;2022-10-01T00:59:17;13.90;99.90
21092;DHT22;10704;42.678;23.288;2022-10-01T01:01:43;13.80;99.90
21092;DHT22;10704;42.678;23.288;2022-10-01T01:04:09;14.00;99.90
21092;DHT22;10704;42.678;23.288;2022-10-01T01:06:43;13.90;99.90
21092;DHT22;10704;42.678;23.288;2022-10-01T01:09:10;13.90;99.90
21092;DHT22;10704;42.678;23.288;2022-10-01T01:21:55;13.70;99.90
21092;DHT22;10704;42.678;23.288;2022-10-01T01:24:58;13.70;99.90
21092;DHT22;10704;42.678;23.288;2022-10-01T01:27:37;13.70;99.90
21092;DHT22;10704;42.678;23.288;2022-10-01T01:30:12;13.80;99.90
21092;DHT22;10704;42.678;23.288;2022-10-01T01:33:02;13.80;99.90
21092;DHT22;10704;42.678;23.288;2022-10-01T01:35:39;13.80;99.90
21092;DHT22;10704;42.678;23.288;2022-10-01T01:38:10;13.60;99.90
21092;DHT22;10704;42.678;23.288;2022-10-01T01:40:40;13.50;99.90
21092;DHT22;10704;42.678;23.288;2022-10-01T01:43:11;13.60;99.90
21092;DHT22;10704;42.678;23.288;2022-10-01T01:45:42;13.60;99.90
21092;DHT22;10704;42.678;23.288;2022-10-01T01:48:09;13.60;99.90
21092;DHT22;10704;42.678;23.288;2022-10-01T01:51:13;13.50;99.90
21092;DHT22;10704;42.678;23.288;2022-10-01T01:57:24;13.40;99.90
21092;DHT22;10704;42.678;23.288;2022-10-01T02:03:38;13.50;99.90
21092;DHT22;10704;42.678;23.288;2022-10-01T02:06:23;13.30;99.90
21092;DHT22;10704;42.678;23.288;2022-10-01T02:09:03;13.30;99.90
21092;DHT22;10704;42.678;23.288;2022-10-01T02:11:35;13.30;99.90
21092;DHT22;10704;42.678;23.288;2022-10-01T02:17:01;13.20;99.90
21092;DHT22;10704;42.678;23.288;2022-10-01T02:19:30;13.30;99.90
21092;DHT22;10704;42.678;23.288;2022-10-01T02:22:04;13.30;99.90
21092;DHT22;10704;42.678;23.288;2022-10-01T02:24:59;13.40;99.90
21092;DHT22;10704;42.678;23.288;2022-10-01T02:30:15;13.30;99.90
21092;DHT22;10704;42.678;23.288;2022-10-01T02:32:43;13.30;99.90
21092;DHT22;10704;42.678;23.288;2022-10-01T02:35:14;13.40;99.90
21092;DHT22;10704;42.678;23.288;2022-10-01T02:37:43;13.30;99.90
21092;DHT22;10704;42.678;23.288;2022-10-01T02:40:23;13.40;99.90
21092;DHT22;10704;42.678;23.288;2022-10-01T02:42:59;13.40;99.90
21092;DHT22;10704;42.678;23.288;2022-10-01T02:45:26;13.50;99.90
21092;DHT22;10704;42.678;23.288;2022-10-01T02:48:03;13.60;99.90
21092;DHT22;10704;42.678;23.288;2022-10-01T02:50:36;13.70;99.90
21092;DHT22;10704;42.678;23.288;2022-10-01T02:53:52;13.80;99.90
21092;DHT22;10704;42.678;23.288;2022-10-01T02:55:53;13.70;99.90
21092;DHT22;10704;42.678;23.288;2022-10-01T02:58:20;13.80;99.90
21092;DHT22;10704;42.678;23.288;2022-10-01T03:00:46;13.80;99.90
21092;DHT22;10704;42.678;23.288;2022-10-01T03:03:12;13.80;99.90
21092;DHT22;10704;42.678;23.288;2022-10-01T03:05:38;13.90;99.90
21092;DHT22;10704;42.678;23.288;2022-10-01T03:08:04;13.80;99.90
21092;DHT22;10704;42.678;23.288;2022-10-01T03:10:30;13.90;99.90
21092;DHT22;10704;42.678;23.288;2022-10-01T03:12:55;14.00;99.90
21092;DHT22;10704;42.678;23.288;2022-10-01T03:15:21;14.10;99.90
21092;DHT22;10704;42.678;23.288;2022-10-01T03:17:51;14.00;99.90
21092;DHT22;10704;42.678;23.288;2022-10-01T03:20:17;14.00;99.90
21092;DHT22;10704;42.678;23.288;2022-10-01T03:22:45;14.00;99.90
21092;DHT22;10704;42.678;23.288;2022-10-01T03:25:12;14.10;99.90
21092;DHT22;10704;42.678;23.288;2022-10-01T03:27:38;14.10;99.90
21092;DHT22;10704;42.678;23.288;2022-10-01T03:30:04;14.00;99.90
21092;DHT22;10704;42.678;23.288;2022-10-01T03:32:31;14.00;99.90
21092;DHT22;10704;42.678;23.288;2022-10-01T03:34:57;13.90;99.90
21092;DHT22;10704;42.678;23.288;2022-10-01T03:37:24;13.90;99.90
21092;DHT22;10704;42.678;23.288;2022-10-01T03:39:50;13.90;99.90
21092;DHT22;10704;42.678;23.288;2022-10-01T03:42:16;13.90;99.90
21092;DHT22;10704;42.678;23.288;2022-10-01T03:44:42;13.90;99.90
21092;DHT22;10704;42.678;23.288;2022-10-01T03:47:09;13.80;99.90
21092;DHT22;10704;42.678;23.288;2022-10-01T03:49:35;13.80;99.90
21092;DHT22;10704;42.678;23.288;2022-10-01T03:52:03;13.70;99.90
21092;DHT22;10704;42.678;23.288;2022-10-01T03:54:29;13.60;99.90
21092;DHT22;10704;42.678;23.288;2022-10-01T03:56:56;13.50;99.90
21092;DHT22;10704;42.678;23.288;2022-10-01T03:59:22;13.50;99.90
21092;DHT22;10704;42.678;23.288;2022-10-01T04:01:48;13.60;99.90
21092;DHT22;10704;42.678;23.288;2022-10-01T04:04:15;13.60;99.90
21092;DHT22;10704;42.678;23.288;2022-10-01T04:06:40;13.60;99.90
21092;DHT22;10704;42.678;23.288;2022-10-01T04:09:06;13.60;99.90
21092;DHT22;10704;42.678;23.288;2022-10-01T04:11:35;13.60;99.90
21092;DHT22;10704;42.678;23.288;2022-10-01T04:14:01;13.60;99.90
21092;DHT22;10704;42.678;23.288;2022-10-01T04:16:27;13.60;99.90
21092;DHT22;10704;42.678;23.288;2022-10-01T04:18:54;13.60;99.90
21092;DHT22;10704;42.678;23.288;2022-10-01T04:21:21;13.60;99.90
21092;DHT22;10704;42.678;23.288;2022-10-01T04:23:47;13.50;99.90
21092;DHT22;10704;42.678;23.288;2022-10-01T04:26:14;13.40;99.90
21092;DHT22;10704;42.678;23.288;2022-10-01T04:28:43;13.40;99.90
21092;DHT22;10704;42.678;23.288;2022-10-01T04:31:11;13.40;99.90
21092;DHT22;10704;42.678;23.288;2022-10-01T04:33:53;13.40;99.90
21092;DHT22;10704;42.678;23.288;2022-10-01T04:36:19;13.50;99.90
21092;DHT22;10704;42.678;23.288;2022-10-01T04:38:45;13.50;99.90
21092;DHT22;10704;42.678;23.288;2022-10-01T04:41:11;13.50;99.90
21092;DHT22;10704;42.678;23.288;2022-10-01T04:43:39;13.50;99.90
21092;DHT22;10704;42.678;23.288;2022-10-01T04:46:05;13.40;99.90
21092;DHT22;10704;42.678;23.288;2022-10-01T04:48:31;13.50;99.90
21092;DHT22;10704;42.678;23.288;2022-10-01T04:50:57;13.50;99.90
21092;DHT22;10704;42.678;23.288;2022-10-01T04:53:23;13.50;99.90
21092;DHT22;10704;42.678;23.288;2022-10-01T04:55:49;13.50;99.90
21092;DHT22;10704;42.678;23.288;2022-10-01T04:58:15;13.50;99.90
21092;DHT22;10704;42.678;23.288;2022-10-01T05:00:41;13.60;99.90
21092;DHT22;10704;42.678;23.288;2022-10-01T05:03:06;13.70;99.90
21092;DHT22;10704;42.678;23.288;2022-10-01T05:05:32;13.80;99.90
21092;DHT22;10704;42.678;23.288;2022-10-01T05:08:00;13.90;99.90
21092;DHT22;10704;42.678;23.288;2022-10-01T05:10:26;13.70;99.90
21092;DHT22;10704;42.678;23.288;2022-10-01T05:12:52;13.70;99.90
21092;DHT22;10704;42.678;23.288;2022-10-01T05:15:18;13.60;99.90
21092;DHT22;10704;42.678;23.288;2022-10-01T05:17:45;13.70;99.90
21092;DHT22;10704;42.678;23.288;2022-10-01T05:20:18;13.80;99.90
21092;DHT22;10704;42.678;23.288;2022-10-01T05:22:45;13.90;99.90
21092;DHT22;10704;42.678;23.288;2022-10-01T05:25:12;14.00;99.90
21092;DHT22;10704;42.678;23.288;2022-10-01T05:27:38;14.00;99.90
21092;DHT22;10704;42.678;23.288;2022-10-01T05:30:06;14.20;99.90
21092;DHT22;10704;42.678;23.288;2022-10-01T05:32:33;14.30;99.90
21092;DHT22;10704;42.678;23.288;2022-10-01T05:34:59;14.40;99.90
21092;DHT22;10704;42.678;23.288;2022-10-01T05:37:25;14.60;99.90
21092;DHT22;10704;42.678;23.288;2022-10-01T05:39:51;14.70;99.90
21092;DHT22;10704;42.678;23.288;2022-10-01T05:42:17;14.90;99.90
21092;DHT22;10704;42.678;23.288;2022-10-01T05:44:43;15.00;99.90
21092;DHT22;10704;42.678;23.288;2022-10-01T05:47:13;15.10;99.90
21092;DHT22;10704;42.678;23.288;2022-10-01T05:49:40;15.20;99.90
21092;DHT22;10704;42.678;23.288;2022-10-01T05:52:09;15.20;99.90
21092;DHT22;10704;42.678;23.288;2022-10-01T05:54:35;15.20;99.90
21092;DHT22;10704;42.678;23.288;2022-10-01T05:57:01;15.30;99.90
21092;DHT22;10704;42.678;23.288;2022-10-01T05:59:28;15.50;99.90
21092;DHT22;10704;42.678;23.288;2022-10-01T06:01:54;15.60;99.90
21092;DHT22;10704;42.678;23.288;2022-10-01T06:04:19;15.60;99.90
21092;DHT22;10704;42.678;23.288;2022-10-01T06:06:46;15.80;99.90
21092;DHT22;10704;42.678;23.288;2022-10-01T06:09:12;15.80;99.90
21092;DHT22;10704;42.678;23.288;2022-10-01T06:11:38;16.00;99.90
21092;DHT22;10704;42.678;23.288;2022-10-01T06:14:05;16.10;99.90
21092;DHT22;10704;42.678;23.288;2022-10-01T06:16:31;16.30;99.90
21092;DHT22;10704;42.678;23.288;2022-10-01T06:18:57;16.50;99.90
21092;DHT22;10704;42.678;23.288;2022-10-01T06:21:26;16.70;99.90
21092;DHT22;10704;42.678;23.288;2022-10-01T06:23:53;16.80;99.90
21092;DHT22;10704;42.678;23.288;2022-10-01T06:26:19;17.00;99.90
21092;DHT22;10704;42.678;23.288;2022-10-01T06:28:48;17.20;99.90
21092;DHT22;10704;42.678;23.288;2022-10-01T06:31:14;17.30;99.90
21092;DHT22;10704;42.678;23.288;2022-10-01T06:33:40;17.40;99.90
21092;DHT22;10704;42.678;23.288;2022-10-01T06:36:06;17.50;99.90
21092;DHT22;10704;42.678;23.288;2022-10-01T06:38:32;17.60;99.90
21092;DHT22;10704;42.678;23.288;2022-10-01T06:44:46;17.60;99.90
21092;DHT22;10704;42.678;23.288;2022-10-01T06:47:12;17.90;99.90
21092;DHT22;10704;42.678;23.288;2022-10-01T06:49:37;18.10;99.90
21092;DHT22;10704;42.678;23.288;2022-10-01T06:52:03;18.20;99.90
21092;DHT22;10704;42.678;23.288;2022-10-01T06:54:48;18.10;99.90
21092;DHT22;10704;42.678;23.288;2022-10-01T06:57:14;18.20;99.90
21092;DHT22;10704;42.678;23.288;2022-10-01T06:59:40;18.50;99.90
21092;DHT22;10704;42.678;23.288;2022-10-01T07:02:06;18.70;99.90
21092;DHT22;10704;42.678;23.288;2022-10-01T07:04:32;19.00;99.90
21092;DHT22;10704;42.678;23.288;2022-10-01T07:06:57;19.20;99.90
21092;DHT22;10704;42.678;23.288;2022-10-01T07:09:24;19.10;99.90
21092;DHT22;10704;42.678;23.288;2022-10-01T07:11:50;19.20;99.90
21092;DHT22;10704;42.678;23.288;2022-10-01T07:14:18;19.30;99.90
21092;DHT22;10704;42.678;23.288;2022-10-01T07:16:45;19.20;99.90
21092;DHT22;10704;42.678;23.288;2022-10-01T07:19:11;19.90;99.90
21092;DHT22;10704;42.678;23.288;2022-10-01T07:21:37;20.20;99.90
21092;DHT22;10704;42.678;23.288;2022-10-01T07:24:03;20.70;99.90
21092;DHT22;10704;42.678;23.288;2022-10-01T07:26:29;21.10;99.90
21092;DHT22;10704;42.678;23.288;2022-10-01T07:28:56;21.20;99.90
21092;DHT22;10704;42.678;23.288;2022-10-01T07:31:22;21.30;99.90
21092;DHT22;10704;42.678;23.288;2022-10-01T07:33:54;21.50;99.90
21092;DHT22;10704;42.678;23.288;2022-10-01T07:36:21;21.90;99.90
21092;DHT22;10704;42.678;23.288;2022-10-01T07:38:48;21.70;99.90
21092;DHT22;10704;42.678;23.288;2022-10-01T07:41:15;22.00;99.90
21092;DHT22;10704;42.678;23.288;2022-10-01T07:43:44;22.70;99.90
21092;DHT22;10704;42.678;23.288;2022-10-01T07:46:11;22.90;99.90
21092;DHT22;10704;42.678;23.288;2022-10-01T07:48:37;22.30;99.90
21092;DHT22;10704;42.678;23.288;2022-10-01T07:51:03;22.40;99.90
21092;DHT22;10704;42.678;23.288;2022-10-01T07:53:29;22.50;99.90
21092;DHT22;10704;42.678;23.288;2022-10-01T07:56:00;22.40;99.90
21092;DHT22;10704;42.678;23.288;2022-10-01T07:58:26;22.40;99.90
21092;DHT22;10704;42.678;23.288;2022-10-01T08:00:52;21.60;99.90
21092;DHT22;10704;42.678;23.288;2022-10-01T08:03:23;20.90;99.90
21092;DHT22;10704;42.678;23.288;2022-10-01T08:05:49;20.70;99.90
21092;DHT22;10704;42.678;23.288;2022-10-01T08:08:17;20.80;99.90
21092;DHT22;10704;42.678;23.288;2022-10-01T08:10:43;20.50;99.90
21092;DHT22;10704;42.678;23.288;2022-10-01T08:13:12;20.40;99.90
21092;DHT22;10704;42.678;23.288;2022-10-01T08:15:46;20.40;99.90
21092;DHT22;10704;42.678;23.288;2022-10-01T08:18:15;20.40;99.90
21092;DHT22;10704;42.678;23.288;2022-10-01T08:20:44;20.40;99.90
21092;DHT22;10704;42.678;23.288;2022-10-01T08:23:12;20.20;99.90
21092;DHT22;10704;42.678;23.288;2022-10-01T08:25:40;20.10;99.90
21092;DHT22;10704;42.678;23.288;2022-10-01T08:28:07;20.10;99.90
21092;DHT22;10704;42.678;23.288;2022-10-01T08:30:36;20.00;99.90
21092;DHT22;10704;42.678;23.288;2022-10-01T08:33:03;20.10;99.90
21092;DHT22;10704;42.678;23.288;2022-10-01T08:35:29;20.00;99.90
21092;DHT22;10704;42.678;23.288;2022-10-01T08:38:02;19.70;99.90
21092;DHT22;10704;42.678;23.288;2022-10-01T08:40:28;19.80;99.90
21092;DHT22;10704;42.678;23.288;2022-10-01T08:42:58;19.90;99.90
21092;DHT22;10704;42.678;23.288;2022-10-01T08:45:28;19.90;99.90
21092;DHT22;10704;42.678;23.288;2022-10-01T08:48:04;20.10;99.90
21092;DHT22;10704;42.678;23.288;2022-10-01T08:50:43;20.20;99.90
21092;DHT22;10704;42.678;23.288;2022-10-01T08:53:22;20.30;99.90
21092;DHT22;10704;42.678;23.288;2022-10-01T08:55:50;20.20;99.90
21092;DHT22;10704;42.678;23.288;2022-10-01T08:58:22;20.00;99.90
21092;DHT22;10704;42.678;23.288;2022-10-01T09:00:50;20.00;99.90
21092;DHT22;10704;42.678;23.288;2022-10-01T09:03:17;20.10;99.90
21092;DHT22;10704;42.678;23.288;2022-10-01T09:11:28;20.00;99.90
21092;DHT22;10704;42.678;23.288;2022-10-01T09:25:20;19.40;99.90
21092;DHT22;10704;42.678;23.288;2022-10-01T09:27:47;19.40;99.90
21092;DHT22;10704;42.678;23.288;2022-10-01T09:30:21;19.50;99.90
21092;DHT22;10704;42.678;23.288;2022-10-01T09:33:01;19.50;99.90
21092;DHT22;10704;42.678;23.288;2022-10-01T09:36:15;19.50;99.90
21092;DHT22;10704;42.678;23.288;2022-10-01T09:38:42;19.50;99.90
21092;DHT22;10704;42.678;23.288;2022-10-01T09:41:09;19.30;99.90
21092;DHT22;10704;42.678;23.288;2022-10-01T09:43:38;19.30;99.90
21092;DHT22;10704;42.678;23.288;2022-10-01T09:46:05;19.20;99.90
21092;DHT22;10704;42.678;23.288;2022-10-01T09:51:21;19.30;99.90
21092;DHT22;10704;42.678;23.288;2022-10-01T09:54:14;19.30;99.90
21092;DHT22;10704;42.678;23.288;2022-10-01T09:56:48;19.00;99.90
21092;DHT22;10704;42.678;23.288;2022-10-01T09:59:28;19.10;99.90
21092;DHT22;10704;42.678;23.288;2022-10-01T10:01:57;19.10;99.90
21092;DHT22;10704;42.678;23.288;2022-10-01T10:04:25;19.20;99.90
21092;DHT22;10704;42.678;23.288;2022-10-01T10:07:02;19.20;99.90
21092;DHT22;10704;42.678;23.288;2022-10-01T10:09:32;19.00;99.90
21092;DHT22;10704;42.678;23.288;2022-10-01T10:11:58;18.90;99.90
21092;DHT22;10704;42.678;23.288;2022-10-01T10:14:33;19.00;99.90
21092;DHT22;10704;42.678;23.288;2022-10-01T10:17:11;19.00;99.90
21092;DHT22;10704;42.678;23.288;2022-10-01T10:19:39;19.00;99.90
21092;DHT22;10704;42.678;23.288;2022-10-01T10:22:11;19.10;99.90
21092;DHT22;10704;42.678;23.288;2022-10-01T10:24:38;19.00;99.90
21092;DHT22;10704;42.678;23.288;2022-10-01T10:27:16;18.90;99.90
21092;DHT22;10704;42.678;23.288;2022-10-01T10:29:43;18.80;99.90
21092;DHT22;10704;42.678;23.288;2022-10-01T10:32:27;18.70;99.90
21092;DHT22;10704;42.678;23.288;2022-10-01T10:34:57;18.60;99.90
21092;DHT22;10704;42.678;23.288;2022-10-01T10:37:30;18.50;99.90
21092;DHT22;10704;42.678;23.288;2022-10-01T10:39:57;18.50;99.90
21092;DHT22;10704;42.678;23.288;2022-10-01T10:42:23;18.40;99.90
21092;DHT22;10704;42.678;23.288;2022-10-01T10:45:00;18.30;99.90
21092;DHT22;10704;42.678;23.288;2022-10-01T10:47:28;18.40;99.90
21092;DHT22;10704;42.678;23.288;2022-10-01T10:50:02;18.40;99.90
21092;DHT22;10704;42.678;23.288;2022-10-01T10:52:33;18.40;99.90
21092;DHT22;10704;42.678;23.288;2022-10-01T10:57:45;18.50;99.90
21092;DHT22;10704;42.678;23.288;2022-10-01T11:00:13;18.40;99.90
21092;DHT22;10704;42.678;23.288;2022-10-01T11:02:54;18.40;99.90
21092;DHT22;10704;42.678;23.288;2022-10-01T11:05:30;18.30;99.90
21092;DHT22;10704;42.678;23.288;2022-10-01T11:07:59;18.40;99.90
21092;DHT22;10704;42.678;23.288;2022-10-01T11:24:47;18.80;99.90
21092;DHT22;10704;42.678;23.288;2022-10-01T11:37:48;19.00;99.90
21092;DHT22;10704;42.678;23.288;2022-10-01T11:40:41;18.80;99.90
21092;DHT22;10704;42.678;23.288;2022-10-01T11:43:30;18.50;99.90
21092;DHT22;10704;42.678;23.288;2022-10-01T11:46:08;18.60;99.90
21092;DHT22;10704;42.678;23.288;2022-10-01T11:48:43;18.60;99.90
21092;DHT22;10704;42.678;23.288;2022-10-01T11:51:16;18.90;99.90
21092;DHT22;10704;42.678;23.288;2022-10-01T11:53:57;19.10;99.90
21092;DHT22;10704;42.678;23.288;2022-10-01T11:56:27;19.10;99.90
21092;DHT22;10704;42.678;23.288;2022-10-01T11:59:25;19.50;99.90
21092;DHT22;10704;42.678;23.288;2022-10-01T12:02:26;19.90;99.90
21092;DHT22;10704;42.678;23.288;2022-10-01T12:05:02;19.90;99.90
21092;DHT22;10704;42.678;23.288;2022-10-01T12:07:52;19.90;99.90
21092;DHT22;10704;42.678;23.288;2022-10-01T12:10:23;20.00;99.90
21092;DHT22;10704;42.678;23.288;2022-10-01T12:15:41;19.70;99.90
21092;DHT22;10704;42.678;23.288;2022-10-01T12:21:07;19.90;99.90
21092;DHT22;10704;42.678;23.288;2022-10-01T12:24:10;19.80;99.90
21092;DHT22;10704;42.678;23.288;2022-10-01T12:46:00;20.20;99.90
21092;DHT22;10704;42.678;23.288;2022-10-01T12:48:23;20.30;99.90
21092;DHT22;10704;42.678;23.288;2022-10-01T12:56:51;20.10;99.90
21092;DHT22;10704;42.678;23.288;2022-10-01T12:59:41;20.00;99.90
21092;DHT22;10704;42.678;23.288;2022-10-01T13:05:17;19.70;99.90
21092;DHT22;10704;42.678;23.288;2022-10-01T13:10:59;19.20;99.90
21092;DHT22;10704;42.678;23.288;2022-10-01T13:13:29;19.30;99.90
21092;DHT22;10704;42.678;23.288;2022-10-01T13:16:31;19.50;99.90
21092;DHT22;10704;42.678;23.288;2022-10-01T13:19:33;19.70;99.90
21092;DHT22;10704;42.678;23.288;2022-10-01T13:27:43;20.10;99.90
21092;DHT22;10704;42.678;23.288;2022-10-01T13:30:21;20.00;99.90
21092;DHT22;10704;42.678;23.288;2022-10-01T13:32:52;20.10;99.90
21092;DHT22;10704;42.678;23.288;2022-10-01T13:35:31;20.10;99.90
21092;DHT22;10704;42.678;23.288;2022-10-01T13:37:58;19.90;99.90
21092;DHT22;10704;42.678;23.288;2022-10-01T13:40:30;20.00;99.90
21092;DHT22;10704;42.678;23.288;2022-10-01T13:43:17;20.10;99.90
21092;DHT22;10704;42.678;23.288;2022-10-01T13:45:47;20.20;99.90
21092;DHT22;10704;42.678;23.288;2022-10-01T13:52:00;20.80;99.90
21092;DHT22;10704;42.678;23.288;2022-10-01T13:54:45;21.10;99.90
21092;DHT22;10704;42.678;23.288;2022-10-01T14:02:39;21.70;99.90
21092;DHT22;10704;42.678;23.288;2022-10-01T14:05:35;22.00;99.90
21092;DHT22;10704;42.678;23.288;2022-10-01T14:08:15;22.30;99.90
21092;DHT22;10704;42.678;23.288;2022-10-01T14:10:52;22.60;99.90
21092;DHT22;10704;42.678;23.288;2022-10-01T14:13:45;22.80;99.90
21092;DHT22;10704;42.678;23.288;2022-10-01T14:16:41;23.20;99.90
21092;DHT22;10704;42.678;23.288;2022-10-01T14:19:08;23.40;99.90
21092;DHT22;10704;42.678;23.288;2022-10-01T14:24:39;23.30;99.90
21092;DHT22;10704;42.678;23.288;2022-10-01T14:30:05;23.20;99.90
21092;DHT22;10704;42.678;23.288;2022-10-01T14:38:19;22.40;99.90
21092;DHT22;10704;42.678;23.288;2022-10-01T14:40:48;22.60;99.90
21092;DHT22;10704;42.678;23.288;2022-10-01T14:43:23;22.90;99.90
21092;DHT22;10704;42.678;23.288;2022-10-01T14:45:58;22.90;99.90
21092;DHT22;10704;42.678;23.288;2022-10-01T14:48:33;22.80;99.90
21092;DHT22;10704;42.678;23.288;2022-10-01T14:51:01;22.90;99.90
21092;DHT22;10704;42.678;23.288;2022-10-01T14:53:31;23.10;99.90
21092;DHT22;10704;42.678;23.288;2022-10-01T14:56:02;22.30;99.90
21092;DHT22;10704;42.678;23.288;2022-10-01T14:58:33;21.90;99.90
21092;DHT22;10704;42.678;23.288;2022-10-01T15:01:00;21.40;99.90
21092;DHT22;10704;42.678;23.288;2022-10-01T15:03:35;21.00;99.90
21092;DHT22;10704;42.678;23.288;2022-10-01T15:06:03;20.70;99.90
21092;DHT22;10704;42.678;23.288;2022-10-01T15:08:39;20.60;99.90
21092;DHT22;10704;42.678;23.288;2022-10-01T15:11:23;20.60;99.90
21092;DHT22;10704;42.678;23.288;2022-10-01T15:13:53;20.60;99.90
21092;DHT22;10704;42.678;23.288;2022-10-01T15:16:22;20.60;99.90
21092;DHT22;10704;42.678;23.288;2022-10-01T15:19:01;20.60;99.90
21092;DHT22;10704;42.678;23.288;2022-10-01T15:21:49;20.50;99.90
21092;DHT22;10704;42.678;23.288;2022-10-01T15:24:28;20.30;99.90
21092;DHT22;10704;42.678;23.288;2022-10-01T15:26:56;20.10;99.90
21092;DHT22;10704;42.678;23.288;2022-10-01T15:29:22;19.90;99.90
21092;DHT22;10704;42.678;23.288;2022-10-01T15:31:50;19.80;99.90
21092;DHT22;10704;42.678;23.288;2022-10-01T15:34:18;19.70;99.90
21092;DHT22;10704;42.678;23.288;2022-10-01T15:36:46;19.60;99.90
21092;DHT22;10704;42.678;23.288;2022-10-01T15:39:31;19.50;99.90
21092;DHT22;10704;42.678;23.288;2022-10-01T15:42:00;19.50;99.90
21092;DHT22;10704;42.678;23.288;2022-10-01T15:44:47;19.70;99.90
21092;DHT22;10704;42.678;23.288;2022-10-01T15:47:26;19.70;99.90
21092;DHT22;10704;42.678;23.288;2022-10-01T15:55:18;19.70;99.90
21092;DHT22;10704;42.678;23.288;2022-10-01T16:03:19;19.50;99.90
21092;DHT22;10704;42.678;23.288;2022-10-01T16:05:49;19.50;99.90
21092;DHT22;10704;42.678;23.288;2022-10-01T16:08:16;19.40;99.90
21092;DHT22;10704;42.678;23.288;2022-10-01T16:10:47;19.30;99.90
21092;DHT22;10704;42.678;23.288;2022-10-01T16:13:41;19.10;99.90
21092;DHT22;10704;42.678;23.288;2022-10-01T16:18:39;18.90;99.90
21092;DHT22;10704;42.678;23.288;2022-10-01T16:21:07;18.80;99.90
21092;DHT22;10704;42.678;23.288;2022-10-01T16:23:39;18.70;99.90
21092;DHT22;10704;42.678;23.288;2022-10-01T16:28:55;18.60;99.90
21092;DHT22;10704;42.678;23.288;2022-10-01T16:31:25;18.60;99.90
21092;DHT22;10704;42.678;23.288;2022-10-01T16:33:52;18.50;99.90
21092;DHT22;10704;42.678;23.288;2022-10-01T16:36:19;18.50;99.90
21092;DHT22;10704;42.678;23.288;2022-10-01T16:38:46;18.50;99.90
21092;DHT22;10704;42.678;23.288;2022-10-01T16:41:18;18.40;99.90
21092;DHT22;10704;42.678;23.288;2022-10-01T16:43:45;18.40;99.90
21092;DHT22;10704;42.678;23.288;2022-10-01T16:46:11;18.40;99.90
21092;DHT22;10704;42.678;23.288;2022-10-01T16:48:37;18.40;99.90
21092;DHT22;10704;42.678;23.288;2022-10-01T16:51:03;18.40;99.90
21092;DHT22;10704;42.678;23.288;2022-10-01T16:53:29;18.30;99.90
21092;DHT22;10704;42.678;23.288;2022-10-01T16:55:55;18.30;99.90
21092;DHT22;10704;42.678;23.288;2022-10-01T16:58:23;18.20;99.90
21092;DHT22;10704;42.678;23.288;2022-10-01T17:00:49;18.10;99.90
21092;DHT22;10704;42.678;23.288;2022-10-01T17:03:18;18.00;99.90
21092;DHT22;10704;42.678;23.288;2022-10-01T17:05:44;18.00;99.90
21092;DHT22;10704;42.678;23.288;2022-10-01T17:08:11;18.00;99.90
21092;DHT22;10704;42.678;23.288;2022-10-01T17:10:43;17.90;99.90
21092;DHT22;10704;42.678;23.288;2022-10-01T17:13:13;17.80;99.90
21092;DHT22;10704;42.678;23.288;2022-10-01T17:15:41;17.70;99.90
21092;DHT22;10704;42.678;23.288;2022-10-01T17:18:08;17.70;99.90
21092;DHT22;10704;42.678;23.288;2022-10-01T17:20:34;17.60;99.90
21092;DHT22;10704;42.678;23.288;2022-10-01T17:23:02;17.50;99.90
21092;DHT22;10704;42.678;23.288;2022-10-01T17:25:30;17.60;99.90
21092;DHT22;10704;42.678;23.288;2022-10-01T17:28:01;17.70;99.90
21092;DHT22;10704;42.678;23.288;2022-10-01T17:30:28;17.60;99.90
21092;DHT22;10704;42.678;23.288;2022-10-01T17:32:55;17.60;99.90
21092;DHT22;10704;42.678;23.288;2022-10-01T17:35:23;17.60;99.90
21092;DHT22;10704;42.678;23.288;2022-10-01T17:37:48;17.60;99.90
21092;DHT22;10704;42.678;23.288;2022-10-01T17:40:14;17.60;99.90
21092;DHT22;10704;42.678;23.288;2022-10-01T17:42:40;17.60;99.90
21092;DHT22;10704;42.678;23.288;2022-10-01T17:45:09;17.50;99.90
21092;DHT22;10704;42.678;23.288;2022-10-01T17:47:35;17.50;99.90
21092;DHT22;10704;42.678;23.288;2022-10-01T17:50:02;17.60;99.90
21092;DHT22;10704;42.678;23.288;2022-10-01T17:52:28;17.60;99.90
21092;DHT22;10704;42.678;23.288;2022-10-01T17:54:54;17.60;99.90
21092;DHT22;10704;42.678;23.288;2022-10-01T17:57:20;17.60;99.90
21092;DHT22;10704;42.678;23.288;2022-10-01T17:59:46;17.60;99.90
21092;DHT22;10704;42.678;23.288;2022-10-01T18:02:12;17.60;99.90
21092;DHT22;10704;42.678;23.288;2022-10-01T18:04:38;17.60;99.90
21092;DHT22;10704;42.678;23.288;2022-10-01T18:07:09;17.80;99.90
21092;DHT22;10704;42.678;23.288;2022-10-01T18:09:35;17.70;99.90
21092;DHT22;10704;42.678;23.288;2022-10-01T18:12:02;17.80;99.90